Fayville, Illinois
Current Conditions -  °F | °C
As of 3:53 AM on Friday 28 Nov 2014 (Local Time) from KCGI Reporting Station
Clear Clear  
Wind Chill: 23°   Ceiling: Unl
Heat Index: 29°   Visibility: 7mi
Dew Point: 26°   Wind: 6mph
Humidity: 89%   Direction: 150°SSE
Pressure: 30.4"   Gusts: NA
Location:  37.1947°N, 89.3961°W
Report Text: KCGI 280953Z AUTO 15005KT 7SM CLR M02/M03 A3040 RMK AO2 SLP297 T10171033 TSNO
Loading
Personal Weather Stations






























Interactive Weather Map New forecast layout! Learn more

10-Day Weather Forecast

Advertisements
Track Severe Weather on mobile